Montevideo, Uruguay
Current Conditions -  °F | °C
As of 7:00 AM on Sunday 23 Nov 2014 (Local Time) from SUMU Reporting Station
Clear Clear  
Wind Chill: 61°   Ceiling: Unl
Heat Index: 61°   Visibility: 6mi
Dew Point: 50°   Wind: 7mph
Humidity: 68%   Direction: 310°NW
Pressure: 29.88"   Gusts: NA
Location:  34.87°S, 56.17°W
Report Text: SUMU 231000Z 31006KT CAVOK 16/10 Q1012 NOSIG
Loading
Personal Weather Stations






























Interactive Weather Map New forecast layout! Learn more

10-Day Weather Forecast

Advertisements
Track Severe Weather on mobile